Portada
METAR-TAF:

METAR-TAF

Aeropuertos :

Aeropuerto Internacional de Indianápolis

Indianápolis, Indiana, Estados Unidos

latitud: 39-43-30N, longitud: 086-16-55W, altitud: 243 m

Observación

El informe se hizo hace 9 minutos, a las 14:54 UTC
Viento 5 kt del norte-noreste
Temperatura 22°C
Humedad 65%
Presión 1022 hPa
Visibilidad: 16.1 km
Escasas nubes a una altura de 2600 ft
Escasas nubes a una altura de 25000 ft

METAR: KIND 231454Z 03005KT 10SM FEW026 FEW250 22/15 A3017 RMK AO2 SLP210 T02170150 50005 $

Hora: 11:03 (15:03 UTC)

Pronóstico

El informe se hizo hace 58 minutos, a las 14:05 UTC
Pronóstico válido del 23 a las 14 UTC al 24 a las 18 UTC
Viento 6 kt del este-noreste
Visibilidad: 10 km
Escasas nubes a una altura de 2500 ft
Escasas nubes a una altura de 25000 ft
A partir de las 24 a las 1600 UTC
Viento 4 kt del este
Visibilidad: 10 km
Escasas nubes a una altura de 25000 ft

TAF: KIND 231405Z 2314/2418 07006KT P6SM FEW025 FEW250 FM241600 09004KT P6SM FEW250

Observaciones y pronósticos meteorológicos de más de 4000 aeropuertos (mensajes METAR y TAF).

Los puntos amarillos y rojos representan las estaciones disponibles.

Ponga el ratón en el punto deseado para ver el nombre de la estación.

Haga clic para ver las observaciones y los pronósticos meteorológicos.

Para cambiar el mapa : haga clic en los botones verdes con una cruz de color negro para hacer un zoom, en el botón verde con un guión para alejar o en las flechas verdes para mapas adyacentes.


METAR-TAF: